Time;durP1;ratioP1;P1;durP2;ratioP2;P2;SDS_P1;SDS_P2;PMS_P1;PMS_P2;Temp;Humidity;BMP_temperature;BMP_pressure;BME280_temperature;BME280_humidity;BME280_pressure;Samples;Min_cycle;Max_cycle;Signal;HPM_P1;HPM_P2
2022/08/02 00:02:04;;;;;;;;;;;;;;;23.15;67.85;99991.78;1661520;85;20199;-64
2022/08/02 00:04:31;;;;;;;;;;;;;;;23.20;67.92;99986.08;1667365;84;20169;-65
2022/08/02 00:06:57;;;;;;;;;;;;;;;23.24;67.95;99990.23;1674056;85;20231;-65
2022/08/02 00:09:24;;;;;;;;;;;;;;;23.27;68.10;99982.71;1675423;85;21168;-65
2022/08/02 00:11:50;;;;;;;;;;;;;;;23.33;68.13;99983.44;1670284;85;20196;-64
2022/08/02 00:14:17;;;;;;;;;;;;;;;23.39;68.05;99983.34;1671456;85;20444;-64
2022/08/02 00:16:43;;;;;;;;;;;;;;;23.43;67.75;99986.17;1677157;85;20148;-64
2022/08/02 00:19:10;;;;;;;;;;;;;;;23.47;67.53;99985.67;1668978;85;20177;-64
2022/08/02 00:21:36;;;;;;;;;;;;;;;23.50;67.35;99983.59;1663583;84;21102;-65
2022/08/02 00:24:04;;;;;;;;;;;;;;;23.52;66.97;99979.92;1666243;85;20220;-65
2022/08/02 00:26:30;;;;;;;;;;;;;;;23.54;66.77;99980.36;1663511;85;20215;-65
2022/08/02 00:28:57;;;;;;;;;;;;;;;23.58;66.61;99987.24;1618043;88;20178;-65
2022/08/02 00:31:24;;;;;;;;;;;;;;;23.60;66.44;99984.38;1661547;85;20173;-66
2022/08/02 00:33:50;;;;;;;;;;;;;;;23.65;66.35;99987.38;1661331;85;21163;-65
2022/08/02 00:36:16;;;;;;;;;;;;;;;23.68;66.08;99982.61;1668405;85;20186;-65
2022/08/02 00:38:43;;;;;;;;;;;;;;;23.72;65.90;99981.31;1666683;85;20149;-66
2022/08/02 00:41:12;;;;;;;;;;;;;;;23.75;65.71;99985.47;1670102;85;20197;-65
2022/08/02 00:43:39;;;;;;;;;;;;;;;23.80;65.56;99984.41;1668947;85;20592;-65
2022/08/02 00:46:05;;;;;;;;;;;;;;;23.81;65.48;99985.98;1669822;85;21165;-65
2022/08/02 00:48:32;;;;;;;;;;;;;;;23.85;65.38;99990.92;1667496;84;20184;-65
2022/08/02 00:50:59;;;;;;;;;;;;;;;23.88;65.48;99983.39;1670421;85;20232;-65
2022/08/02 00:53:25;;;;;;;;;;;;;;;23.91;65.69;99985.39;1670028;84;20212;-65
2022/08/02 00:55:52;;;;;;;;;;;;;;;23.90;65.59;99987.92;1670510;84;20196;-65
2022/08/02 00:58:18;;;;;;;;;;;;;;;23.90;65.60;99980.31;1669955;84;21163;-65
2022/08/02 01:00:44;;;;;;;;;;;;;;;23.89;65.51;99978.16;1669609;85;20202;-65
2022/08/02 01:03:10;;;;;;;;;;;;;;;23.89;65.44;99989.08;1670454;84;20777;-65
2022/08/02 01:05:36;;;;;;;;;;;;;;;23.89;65.39;99979.53;1669743;85;20232;-65
2022/08/02 01:08:03;;;;;;;;;;;;;;;23.88;65.28;99984.17;1671848;85;20468;-66
2022/08/02 01:10:30;;;;;;;;;;;;;;;23.83;65.23;99980.97;1671919;85;21184;-65
2022/08/02 01:12:57;;;;;;;;;;;;;;;23.80;65.29;99982.47;1671514;85;20180;-65
2022/08/02 01:15:23;;;;;;;;;;;;;;;23.75;65.47;99979.23;1663819;85;20483;-64
2022/08/02 01:17:53;;;;;;;;;;;;;;;23.73;65.67;99980.97;1671730;85;20429;-65
2022/08/02 01:20:45;;;;;;;;;;;;;;;23.73;65.96;99978.82;1636782;87;20604;-64
2022/08/02 01:23:50;;;;;;;;;;;;;;;23.73;66.15;99978.82;1670605;84;21355;-65
2022/08/02 01:26:52;;;;;;;;;;;;;;;23.73;66.42;99983.70;1668595;85;20242;-65
2022/08/02 01:29:27;;;;;;;;;;;;;;;23.73;66.77;99978.82;1670842;85;20149;-64
2022/08/02 01:32:00;;;;;;;;;;;;;;;23.70;66.94;99983.05;1670541;85;20192;-65
2022/08/02 01:34:33;;;;;;;;;;;;;;;23.71;66.99;99979.75;1662961;85;20204;-66
2022/08/02 01:37:06;;;;;;;;;;;;;;;23.71;67.03;99981.89;1669783;85;21184;-65
2022/08/02 01:39:33;;;;;;;;;;;;;;;23.72;67.17;99979.38;1670622;85;20189;-65
2022/08/02 01:42:00;;;;;;;;;;;;;;;23.74;67.29;99978.45;1671217;85;20180;-64
2022/08/02 01:44:28;;;;;;;;;;;;;;;23.78;67.36;99974.42;1668850;85;20185;-65
2022/08/02 01:46:58;;;;;;;;;;;;;;;23.78;67.47;99975.21;1670025;85;21063;-66
2022/08/02 01:49:24;;;;;;;;;;;;;;;23.79;67.58;99969.18;1668277;85;21407;-65
2022/08/02 01:54:35;;;;;;;;;;;;;;;23.82;67.72;99959.73;1667087;85;20515;-65
2022/08/02 01:57:05;;;;;;;;;;;;;;;23.82;67.58;99965.73;1671637;85;20220;-64
2022/08/02 01:59:32;;;;;;;;;;;;;;;23.78;67.47;99956.13;1672416;85;20208;-65
2022/08/02 02:01:59;;;;;;;;;;;;;;;23.77;67.37;99957.28;1669854;85;21159;-65
2022/08/02 02:04:27;;;;;;;;;;;;;;;23.75;67.31;99952.75;1667954;85;20588;-65
2022/08/02 02:06:54;;;;;;;;;;;;;;;23.72;67.09;99949.95;1671356;84;20167;-65
2022/08/02 02:09:21;;;;;;;;;;;;;;;23.69;66.99;99944.67;1667769;85;20638;-65
2022/08/02 02:11:47;;;;;;;;;;;;;;;23.68;66.86;99947.16;1670560;85;20192;-65
2022/08/02 02:14:14;;;;;;;;;;;;;;;23.66;66.63;99945.36;1668426;85;21881;-65
2022/08/02 02:16:41;;;;;;;;;;;;;;;23.64;66.55;99944.92;1670628;85;20149;-65
2022/08/02 02:19:08;;;;;;;;;;;;;;;23.62;66.50;99949.35;1670439;85;20220;-65
2022/08/02 02:21:34;;;;;;;;;;;;;;;23.60;66.47;99946.80;1669762;85;20293;-65
2022/08/02 02:24:01;;;;;;;;;;;;;;;23.58;66.35;99943.05;1671243;85;20186;-65
2022/08/02 02:26:27;;;;;;;;;;;;;;;23.59;66.33;99946.02;1672227;85;21175;-65
2022/08/02 02:28:54;;;;;;;;;;;;;;;23.59;66.31;99943.83;1672415;85;20141;-65
2022/08/02 02:31:20;;;;;;;;;;;;;;;23.60;66.32;99944.07;1641796;87;20500;-65
2022/08/02 02:33:57;;;;;;;;;;;;;;;23.55;66.18;99942.98;1667581;85;20252;-65
2022/08/02 02:36:24;;;;;;;;;;;;;;;23.53;66.22;99938.48;1669943;85;20133;-65
2022/08/02 02:38:50;;;;;;;;;;;;;;;23.52;66.29;99940.39;1663057;85;21165;-65
2022/08/02 02:41:17;;;;;;;;;;;;;;;23.53;66.37;99939.27;1651994;85;20147;-65
2022/08/02 02:43:43;;;;;;;;;;;;;;;23.54;66.38;99937.33;1671527;84;20174;-65
2022/08/02 02:46:11;;;;;;;;;;;;;;;23.52;66.34;99936.30;1672572;85;20170;-65
2022/08/02 02:48:37;;;;;;;;;;;;;;;23.50;66.40;99938.62;1671499;84;20236;-65
2022/08/02 02:51:04;;;;;;;;;;;;;;;23.47;66.41;99935.25;1668142;85;21230;-65
2022/08/02 02:53:31;;;;;;;;;;;;;;;23.46;66.47;99939.67;1657196;85;20427;-65
2022/08/02 02:55:57;;;;;;;;;;;;;;;23.44;66.41;99940.05;1656623;85;20146;-65
2022/08/02 02:58:23;;;;;;;;;;;;;;;23.46;66.20;99939.67;1670235;85;20452;-66
2022/08/02 03:03:34;;;;;;;;;;;;;;;23.45;65.92;99940.83;1646458;85;21248;-65
2022/08/02 03:06:01;;;;;;;;;;;;;;;23.44;65.81;99939.27;1667165;85;20148;-66
2022/08/02 03:08:28;;;;;;;;;;;;;;;23.44;65.68;99941.41;1669772;84;20183;-65
2022/08/02 03:10:55;;;;;;;;;;;;;;;23.45;65.60;99942.20;1665962;85;20235;-65
2022/08/02 03:13:22;;;;;;;;;;;;;;;23.44;65.45;99939.27;1668390;85;20200;-66
2022/08/02 03:15:52;;;;;;;;;;;;;;;23.44;65.29;99938.69;1671071;85;21163;-65
2022/08/02 03:18:38;;;;;;;;;;;;;;;23.42;65.21;99931.43;1670504;85;20212;-66
2022/08/02 03:21:06;;;;;;;;;;;;;;;23.41;65.21;99936.67;1665646;85;20938;-65
2022/08/02 03:23:32;;;;;;;;;;;;;;;23.40;65.15;99939.20;1670934;85;20241;-65
2022/08/02 03:25:59;;;;;;;;;;;;;;;23.41;65.33;99937.46;1668016;85;20141;-65
2022/08/02 03:28:25;;;;;;;;;;;;;;;23.42;65.12;99938.24;1670180;85;21162;-65
2022/08/02 03:30:52;;;;;;;;;;;;;;;23.43;64.84;99942.57;1670623;84;20515;-64
2022/08/02 03:33:19;;;;;;;;;;;;;;;23.39;64.70;99934.88;1670318;85;20201;-65
2022/08/02 03:35:47;;;;;;;;;;;;;;;23.38;64.60;99938.17;1668858;85;20446;-64
2022/08/02 03:38:14;;;;;;;;;;;;;;;23.40;64.52;99943.28;1670530;85;20208;-64
2022/08/02 03:40:42;;;;;;;;;;;;;;;23.40;64.43;99942.70;1669686;84;21191;-65
2022/08/02 03:43:09;;;;;;;;;;;;;;;23.40;64.49;99942.70;1662446;84;20185;-65
2022/08/02 03:45:37;;;;;;;;;;;;;;;23.41;64.45;99946.22;1671498;85;20248;-65
2022/08/02 03:48:04;;;;;;;;;;;;;;;23.38;64.21;99940.11;1670877;84;20197;-65
2022/08/02 03:50:31;;;;;;;;;;;;;;;23.38;64.09;99936.81;1667681;85;20212;-66
2022/08/02 03:52:58;;;;;;;;;;;;;;;23.37;63.99;99948.09;1670494;85;21310;-65
2022/08/02 03:55:24;;;;;;;;;;;;;;;23.34;63.89;99936.53;1669114;85;20219;-65
2022/08/02 03:57:51;;;;;;;;;;;;;;;23.32;63.60;99932.01;1669952;85;20223;-65
2022/08/02 04:00:20;;;;;;;;;;;;;;;23.32;63.66;99936.09;1669775;85;20216;-65
2022/08/02 04:02:47;;;;;;;;;;;;;;;23.33;63.57;99933.58;1668211;85;20209;-65
2022/08/02 04:05:14;;;;;;;;;;;;;;;23.36;63.31;99931.50;1669852;85;21816;-65
2022/08/02 04:07:42;;;;;;;;;;;;;;;23.38;63.09;99936.03;1670696;85;20220;-65
2022/08/02 04:10:09;;;;;;;;;;;;;;;23.38;62.96;99928.64;1669826;85;20713;-66
2022/08/02 04:12:36;;;;;;;;;;;;;;;23.40;63.02;99940.56;1664993;85;20184;-65
2022/08/02 04:15:04;;;;;;;;;;;;;;;23.41;63.04;99953.81;1669773;85;20184;-67
2022/08/02 04:17:31;;;;;;;;;;;;;;;23.37;62.77;99950.23;1669489;85;21124;-65
2022/08/02 04:20:04;;;;;;;;;;;;;;;23.36;62.83;99957.39;1669828;85;20177;-65
2022/08/02 04:22:39;;;;;;;;;;;;;;;23.35;63.05;99965.36;1670973;85;20235;-67
2022/08/02 04:25:07;;;;;;;;;;;;;;;23.34;63.25;99959.70;1669926;85;20160;-65
2022/08/02 04:27:36;;;;;;;;;;;;;;;23.31;63.49;99965.86;1668078;85;20435;-65
2022/08/02 04:30:04;;;;;;;;;;;;;;;23.28;63.64;99971.45;1670310;85;21171;-65
2022/08/02 04:32:31;;;;;;;;;;;;;;;23.23;63.54;99969.02;1672702;85;20196;-65
2022/08/02 04:34:57;;;;;;;;;;;;;;;23.20;63.57;99973.00;1669986;84;20152;-65
2022/08/02 04:37:25;;;;;;;;;;;;;;;23.16;63.77;99975.10;1670330;85;20263;-65
2022/08/02 04:39:51;;;;;;;;;;;;;;;23.15;63.65;99973.50;1670395;85;20512;-65
2022/08/02 04:42:22;;;;;;;;;;;;;;;23.11;63.36;99978.66;1648902;85;21171;-65
2022/08/02 04:44:48;;;;;;;;;;;;;;;23.07;63.43;99980.53;1669880;85;20146;-66
2022/08/02 04:47:15;;;;;;;;;;;;;;;23.02;63.51;99980.79;1672503;85;20149;-65
2022/08/02 04:49:41;;;;;;;;;;;;;;;23.00;63.63;99983.06;1672193;85;20455;-65
2022/08/02 04:52:08;;;;;;;;;;;;;;;22.98;63.76;99989.45;1672407;85;20170;-66
2022/08/02 04:54:34;;;;;;;;;;;;;;;22.91;63.93;99985.97;1672954;85;21166;-66
2022/08/02 04:57:00;;;;;;;;;;;;;;;22.85;64.05;99990.10;1665058;85;20138;-66
2022/08/02 04:59:27;;;;;;;;;;;;;;;22.85;64.13;99994.97;1670961;85;20149;-65
2022/08/02 05:01:53;;;;;;;;;;;;;;;22.83;64.15;99991.02;1670860;85;20452;-65
2022/08/02 05:04:20;;;;;;;;;;;;;;;22.80;64.23;99989.00;1669107;85;20171;-65
2022/08/02 05:06:46;;;;;;;;;;;;;;;22.75;64.13;99990.06;1669937;84;21182;-65
2022/08/02 05:09:13;;;;;;;;;;;;;;;22.70;64.24;99999.84;1670050;85;20201;-65
2022/08/02 05:11:39;;;;;;;;;;;;;;;22.63;64.43;99998.31;1670365;85;20216;-65
2022/08/02 05:14:06;;;;;;;;;;;;;;;22.58;64.57;100004.05;1670256;85;20196;-65
2022/08/02 05:16:32;;;;;;;;;;;;;;;22.54;64.77;99994.43;1671183;85;20249;-65
2022/08/02 05:18:59;;;;;;;;;;;;;;;22.52;64.78;99998.64;1670490;85;21809;-65
2022/08/02 05:21:26;;;;;;;;;;;;;;;22.50;64.93;100004.98;1672769;85;20235;-65
2022/08/02 05:23:52;;;;;;;;;;;;;;;22.48;64.79;100008.86;1671820;84;20147;-65
2022/08/02 05:26:19;;;;;;;;;;;;;;;22.46;64.83;100000.82;1670818;84;20429;-65
2022/08/02 05:28:46;;;;;;;;;;;;;;;22.49;64.83;100000.13;1670462;85;20289;-65
2022/08/02 05:31:12;;;;;;;;;;;;;;;22.52;64.87;99996.70;1670405;84;21131;-65
2022/08/02 05:33:38;;;;;;;;;;;;;;;22.55;64.83;99994.64;1669235;85;20211;-65
2022/08/02 05:36:08;;;;;;;;;;;;;;;22.59;64.89;100002.31;1671266;85;20532;-65
2022/08/02 05:38:34;;;;;;;;;;;;;;;22.63;64.94;100003.19;1671361;85;20196;-65
2022/08/02 05:41:00;;;;;;;;;;;;;;;22.65;65.07;100003.64;1670329;84;20208;-74
2022/08/02 05:43:26;;;;;;;;;;;;;;;22.69;65.12;100001.00;1646797;85;21153;-75
2022/08/02 05:45:53;;;;;;;;;;;;;;;22.70;65.34;100006.11;1668832;85;20223;-74
2022/08/02 05:48:19;;;;;;;;;;;;;;;22.74;65.50;100004.02;1670566;85;20162;-74
2022/08/02 05:50:47;;;;;;;;;;;;;;;22.79;65.47;100013.30;1670643;85;20567;-74
2022/08/02 05:53:17;;;;;;;;;;;;;;;22.82;65.38;100007.14;1670772;85;20847;-71
2022/08/02 05:55:47;;;;;;;;;;;;;;;22.83;65.35;100010.08;1670855;85;21243;-76
2022/08/02 05:58:22;;;;;;;;;;;;;;;22.88;65.49;100019.35;1670609;85;20531;-65
2022/08/02 06:00:48;;;;;;;;;;;;;;;22.94;65.52;100013.89;1666287;85;20146;-65
2022/08/02 06:03:24;;;;;;;;;;;;;;;22.96;65.54;100012.95;1669408;85;20189;-73
2022/08/02 06:05:54;;;;;;;;;;;;;;;22.95;65.63;100005.92;1673067;85;20145;-71
2022/08/02 06:08:21;;;;;;;;;;;;;;;22.96;65.76;100002.05;1671390;85;21168;-72
2022/08/02 06:10:47;;;;;;;;;;;;;;;22.97;65.69;99998.75;1672163;85;20158;-65
2022/08/02 06:13:15;;;;;;;;;;;;;;;22.98;65.58;99995.69;1670177;85;20432;-65
2022/08/02 06:15:42;;;;;;;;;;;;;;;23.00;65.82;99995.33;1670297;85;20190;-65
2022/08/02 06:18:09;;;;;;;;;;;;;;;23.03;65.99;99994.03;1672482;85;20178;-65
2022/08/02 06:20:36;;;;;;;;;;;;;;;23.04;65.94;99987.47;1669756;85;21204;-65
2022/08/02 06:23:05;;;;;;;;;;;;;;;23.05;66.03;99988.25;1671774;85;20285;-65
2022/08/02 06:25:35;;;;;;;;;;;;;;;23.03;66.15;99987.23;1671191;85;20244;-65
2022/08/02 06:28:04;;;;;;;;;;;;;;;23.02;66.16;99980.79;1670833;85;20499;-65
2022/08/02 06:30:31;;;;;;;;;;;;;;;22.98;66.10;99982.07;1670492;85;20452;-65
2022/08/02 06:32:57;;;;;;;;;;;;;;;22.94;66.03;99983.93;1670802;85;21233;-66
2022/08/02 06:35:27;;;;;;;;;;;;;;;22.89;66.16;99981.44;1670871;85;20204;-66
2022/08/02 06:38:01;;;;;;;;;;;;;;;22.84;66.29;99983.08;1669643;85;20200;-66
2022/08/02 06:40:33;;;;;;;;;;;;;;;22.81;66.08;99986.52;1670213;84;20184;-64
2022/08/02 06:43:26;;;;;;;;;;;;;;;22.77;66.08;99981.53;1670283;85;20576;-72
2022/08/02 06:45:52;;;;;;;;;;;;;;;22.75;66.23;99976.45;1668942;85;21112;-65
2022/08/02 06:48:18;;;;;;;;;;;;;;;22.71;66.23;99966.84;1670979;85;20145;-64
2022/08/02 06:50:44;;;;;;;;;;;;;;;22.71;66.67;99968.78;1671246;85;20149;-64
2022/08/02 06:53:11;;;;;;;;;;;;;;;22.67;66.99;99968.70;1670989;85;20437;-65
2022/08/02 06:55:37;;;;;;;;;;;;;;;22.67;67.30;99974.14;1672067;85;20145;-64
2022/08/02 06:58:04;;;;;;;;;;;;;;;22.69;67.36;99971.84;1671970;85;21234;-65
2022/08/02 07:00:30;;;;;;;;;;;;;;;22.70;67.25;99975.34;1671229;85;20189;-65
2022/08/02 07:02:57;;;;;;;;;;;;;;;22.71;67.22;99974.23;1672426;85;20153;-65
2022/08/02 07:05:23;;;;;;;;;;;;;;;22.71;67.07;99976.95;1671313;85;20157;-65
2022/08/02 07:07:50;;;;;;;;;;;;;;;22.69;67.14;99977.86;1669387;85;20471;-65
2022/08/02 07:10:16;;;;;;;;;;;;;;;22.70;67.29;99980.79;1670903;84;21232;-65
2022/08/02 07:12:42;;;;;;;;;;;;;;;22.70;67.44;99982.97;1672059;85;20145;-64
2022/08/02 07:15:11;;;;;;;;;;;;;;;22.71;67.60;99989.20;1673054;85;20141;-64
2022/08/02 07:17:37;;;;;;;;;;;;;;;22.77;67.69;99988.34;1670662;85;20468;-65
2022/08/02 07:20:06;;;;;;;;;;;;;;;22.82;67.35;100000.33;1671894;85;20142;-65
2022/08/02 07:22:33;;;;;;;;;;;;;;;22.86;67.31;99999.84;1672168;85;21194;-65
2022/08/02 07:24:59;;;;;;;;;;;;;;;22.91;67.05;99995.50;1667844;85;20158;-66
2022/08/02 07:27:26;;;;;;;;;;;;;;;22.94;66.60;100004.36;1671395;85;20180;-65
2022/08/02 07:29:52;;;;;;;;;;;;;;;22.96;66.48;100002.05;1670734;85;20205;-65
2022/08/02 07:32:21;;;;;;;;;;;;;;;22.99;66.47;100004.64;1671780;85;20161;-65
2022/08/02 07:34:48;;;;;;;;;;;;;;;23.00;66.59;100012.48;1670465;85;21138;-65
2022/08/02 07:37:14;;;;;;;;;;;;;;;23.01;66.57;100011.33;1670832;85;20185;-65
2022/08/02 07:39:41;;;;;;;;;;;;;;;23.03;66.55;100011.74;1671086;84;20183;-65
2022/08/02 07:42:28;;;;;;;;;;;;;;;23.03;66.63;100019.91;1668844;85;20752;-65
2022/08/02 07:44:55;;;;;;;;;;;;;;;23.03;66.73;100022.64;1670254;85;20205;-66
2022/08/02 07:47:21;;;;;;;;;;;;;;;23.03;66.90;100025.36;1671403;85;21168;-65
2022/08/02 07:49:47;;;;;;;;;;;;;;;23.00;67.03;100030.19;1668104;85;20428;-66
2022/08/02 07:52:14;;;;;;;;;;;;;;;23.00;67.37;100024.73;1670937;85;20268;-65
2022/08/02 07:54:40;;;;;;;;;;;;;;;23.01;67.79;100026.30;1665178;85;20179;-65
2022/08/02 07:57:07;;;;;;;;;;;;;;;23.04;68.04;100034.34;1671338;85;20520;-66
2022/08/02 07:59:33;;;;;;;;;;;;;;;23.06;68.20;100039.64;1671216;85;21333;-65
2022/08/02 08:02:00;;;;;;;;;;;;;;;23.05;68.34;100042.16;1670968;85;20192;-66
2022/08/02 08:04:26;;;;;;;;;;;;;;;23.06;68.25;100035.55;1670972;85;20217;-66
2022/08/02 08:06:53;;;;;;;;;;;;;;;23.04;68.37;100028.33;1670892;84;20569;-66
2022/08/02 08:09:19;;;;;;;;;;;;;;;23.01;68.21;100030.39;1671520;85;20508;-65
2022/08/02 08:11:47;;;;;;;;;;;;;;;23.00;68.23;100034.81;1670899;84;20482;-71
2022/08/02 08:14:15;;;;;;;;;;;;;;;22.95;68.10;100033.16;1672860;85;20150;-66
2022/08/02 08:16:41;;;;;;;;;;;;;;;22.88;68.27;100029.67;1673033;85;20480;-66
2022/08/02 08:19:08;;;;;;;;;;;;;;;22.84;68.48;100031.52;1672563;85;20141;-66
2022/08/02 08:21:35;;;;;;;;;;;;;;;22.76;68.46;100031.11;1673678;85;20161;-66
2022/08/02 08:24:03;;;;;;;;;;;;;;;22.71;68.75;100037.63;1671053;84;21151;-66
2022/08/02 08:26:29;;;;;;;;;;;;;;;22.68;69.02;100035.60;1670996;85;20201;-66
2022/08/02 08:28:56;;;;;;;;;;;;;;;22.67;69.04;100038.66;1673718;85;20496;-66
2022/08/02 08:31:22;;;;;;;;;;;;;;;22.62;69.06;100040.30;1673738;85;20146;-66
2022/08/02 08:33:49;;;;;;;;;;;;;;;22.59;69.26;100038.27;1673446;85;20153;-66
2022/08/02 08:36:15;;;;;;;;;;;;;;;22.54;69.47;100036.61;1673723;85;22034;-66
2022/08/02 08:38:42;;;;;;;;;;;;;;;22.54;69.69;100042.06;1673489;85;20177;-65
2022/08/02 08:41:08;;;;;;;;;;;;;;;22.55;69.82;100039.55;1673176;85;20181;-65
2022/08/02 08:43:36;;;;;;;;;;;;;;;22.57;69.78;100041.33;1671724;85;20161;-66
2022/08/02 08:46:02;;;;;;;;;;;;;;;22.54;69.94;100053.48;1673594;85;20153;-66
2022/08/02 08:48:29;;;;;;;;;;;;;;;22.50;70.06;100054.77;1673076;85;21852;-66
2022/08/02 08:50:56;;;;;;;;;;;;;;;22.43;70.27;100054.58;1673150;85;20166;-65
2022/08/02 08:53:24;;;;;;;;;;;;;;;22.40;70.61;100051.98;1671972;85;20188;-66
2022/08/02 08:55:52;;;;;;;;;;;;;;;22.43;70.89;100056.73;1673061;85;20163;-66
2022/08/02 08:58:18;;;;;;;;;;;;;;;22.50;71.15;100055.34;1671906;85;20145;-67
2022/08/02 09:00:45;;;;;;;;;;;;;;;22.54;71.18;100052.95;1673235;85;21194;-64
2022/08/02 09:03:11;;;;;;;;;;;;;;;22.55;71.16;100051.02;1647566;85;20148;-64
2022/08/02 09:05:38;;;;;;;;;;;;;;;22.56;70.96;100047.92;1670811;85;20232;-66
2022/08/02 09:08:04;;;;;;;;;;;;;;;22.55;70.67;100053.16;1670026;85;20173;-65
2022/08/02 09:10:39;;;;;;;;;;;;;;;22.56;70.53;100051.22;1672792;85;20186;-66
2022/08/02 09:13:22;;;;;;;;;;;;;;;22.56;70.54;100050.65;1673485;85;21167;-64
2022/08/02 09:15:58;;;;;;;;;;;;;;;22.59;70.42;100052.67;1671414;85;20149;-64
2022/08/02 09:18:37;;;;;;;;;;;;;;;22.60;70.37;100047.44;1672682;85;20141;-64
2022/08/02 09:21:07;;;;;;;;;;;;;;;22.63;70.40;100044.02;1673442;85;20682;-64
2022/08/02 09:23:38;;;;;;;;;;;;;;;22.66;70.42;100055.56;1671075;85;20251;-64
2022/08/02 09:26:08;;;;;;;;;;;;;;;22.68;70.33;100062.83;1673602;85;21291;-65
2022/08/02 09:28:36;;;;;;;;;;;;;;;22.65;70.36;100063.52;1673686;85;20154;-65
2022/08/02 09:31:15;;;;;;;;;;;;;;;22.62;70.57;100064.22;1671092;85;20217;-65
2022/08/02 09:33:43;;;;;;;;;;;;;;;22.64;70.91;100067.97;1670881;85;20142;-65
2022/08/02 09:36:11;;;;;;;;;;;;;;;22.66;71.04;100059.65;1671259;85;20172;-66
2022/08/02 09:38:38;;;;;;;;;;;;;;;22.67;71.07;100058.53;1668032;85;21812;-65
2022/08/02 09:41:06;;;;;;;;;;;;;;;22.66;71.16;100056.93;1670054;85;20157;-65
2022/08/02 09:43:40;;;;;;;;;;;;;;;22.69;71.11;100062.25;1671433;85;20169;-65
2022/08/02 09:46:13;;;;;;;;;;;;;;;22.70;71.05;100058.38;1673850;85;20185;-65
2022/08/02 09:48:58;;;;;;;;;;;;;;;22.67;70.60;100056.35;1666488;85;20347;-65
2022/08/02 09:51:36;;;;;;;;;;;;;;;22.62;70.27;100057.99;1670707;85;21178;-64
2022/08/02 09:54:05;;;;;;;;;;;;;;;22.54;69.91;100065.73;1671411;85;20569;-65
2022/08/02 09:56:49;;;;;;;;;;;;;;;22.44;69.95;100062.95;1672598;85;20177;-65
2022/08/02 09:59:16;;;;;;;;;;;;;;;22.42;70.15;100063.89;1673662;85;20157;-64
2022/08/02 10:01:44;;;;;;;;;;;;;;;22.42;70.26;100065.25;1671831;85;20200;-66
2022/08/02 10:04:11;;;;;;;;;;;;;;;22.38;70.41;100058.94;1671397;85;21134;-64
2022/08/02 10:06:38;;;;;;;;;;;;;;;22.33;70.54;100061.89;1673531;85;20165;-64
2022/08/02 10:09:06;;;;;;;;;;;;;;;22.28;70.47;100060.23;1673785;85;20166;-65
2022/08/02 10:11:33;;;;;;;;;;;;;;;22.24;70.72;100069.66;1672398;85;20257;-65
2022/08/02 10:14:02;;;;;;;;;;;;;;;22.17;70.88;100062.64;1673429;85;20469;-65
2022/08/02 10:16:28;;;;;;;;;;;;;;;22.10;70.60;100062.41;1673476;85;21084;-65
2022/08/02 10:18:56;;;;;;;;;;;;;;;22.05;70.40;100067.34;1672518;85;20193;-65
2022/08/02 10:21:32;;;;;;;;;;;;;;;21.97;70.39;100068.47;1673248;85;20154;-65
2022/08/02 10:24:05;;;;;;;;;;;;;;;21.89;70.31;100083.58;1673783;85;20213;-66
2022/08/02 10:26:31;;;;;;;;;;;;;;;21.81;70.31;100073.63;1673378;85;20184;-66
2022/08/02 10:28:58;;;;;;;;;;;;;;;21.71;70.63;100070.24;1673807;85;21163;-65
2022/08/02 10:31:34;;;;;;;;;;;;;;;21.63;71.01;100071.18;1673177;85;20174;-65
2022/08/02 10:34:00;;;;;;;;;;;;;;;21.57;71.39;100075.84;1673678;85;20181;-65
2022/08/02 10:36:29;;;;;;;;;;;;;;;21.52;71.76;100075.52;1673496;85;20188;-65
2022/08/02 10:38:57;;;;;;;;;;;;;;;21.52;72.08;100075.52;1673281;85;20224;-65
2022/08/02 10:41:48;;;;;;;;;;;;;;;21.53;72.41;100077.09;1673474;85;21160;-65
2022/08/02 10:44:27;;;;;;;;;;;;;;;21.55;72.51;100074.80;1673438;85;20205;-64
2022/08/02 10:47:16;;;;;;;;;;;;;;;21.58;72.71;100075.48;1673296;85;20170;-65
2022/08/02 10:49:50;;;;;;;;;;;;;;;21.61;72.80;100076.16;1665507;85;20150;-64
2022/08/02 10:52:21;;;;;;;;;;;;;;;21.62;72.83;100077.76;1673388;85;20181;-64
2022/08/02 10:54:57;;;;;;;;;;;;;;;21.61;72.80;100073.44;1673511;85;22351;-65
2022/08/02 10:57:32;;;;;;;;;;;;;;;21.61;72.81;100080.80;1673742;85;20893;-65
2022/08/02 11:00:15;;;;;;;;;;;;;;;21.60;72.81;100071.87;1673533;85;20150;-65
2022/08/02 11:02:42;;;;;;;;;;;;;;;21.62;72.80;100075.58;1673106;85;20205;-64
2022/08/02 11:05:10;;;;;;;;;;;;;;;21.58;72.67;100086.35;1673444;85;20171;-64
2022/08/02 11:07:46;;;;;;;;;;;;;;;21.55;72.53;100081.59;1673845;85;21179;-66
2022/08/02 11:10:32;;;;;;;;;;;;;;;21.55;72.71;100082.95;1673467;85;20154;-66
2022/08/02 11:13:15;;;;;;;;;;;;;;;21.57;72.93;100088.85;1673567;85;20145;-66
2022/08/02 11:15:55;;;;;;;;;;;;;;;21.57;72.79;100082.62;1673662;85;20351;-67
2022/08/02 11:18:23;;;;;;;;;;;;;;;21.54;72.70;100088.17;1673737;85;20149;-66
2022/08/02 11:20:56;;;;;;;;;;;;;;;21.51;72.78;100090.22;1673418;85;21144;-66
2022/08/02 11:23:38;;;;;;;;;;;;;;;21.49;72.86;100092.50;1669221;85;20460;-66
2022/08/02 11:26:25;;;;;;;;;;;;;;;21.46;73.17;100093.18;1673470;85;20157;-64
2022/08/02 11:28:51;;;;;;;;;;;;;;;21.44;73.47;100096.80;1673813;85;20162;-64
2022/08/02 11:31:18;;;;;;;;;;;;;;;21.47;73.79;100098.83;1650421;85;20173;-65
2022/08/02 11:33:46;;;;;;;;;;;;;;;21.46;73.97;100100.77;1673836;85;20771;-64
2022/08/02 11:36:13;;;;;;;;;;;;;;;21.48;74.10;100094.97;1672888;85;20145;-65
2022/08/02 11:38:39;;;;;;;;;;;;;;;21.49;74.10;100099.30;1651256;85;20179;-65
2022/08/02 11:41:05;;;;;;;;;;;;;;;21.48;74.06;100095.77;1653938;85;20174;-65
2022/08/02 11:43:32;;;;;;;;;;;;;;;21.48;74.22;100094.97;1670979;85;20162;-66
2022/08/02 11:46:03;;;;;;;;;;;;;;;21.50;74.44;100102.23;1671421;85;21149;-65
2022/08/02 11:48:35;;;;;;;;;;;;;;;21.55;74.59;100101.98;1671124;84;20161;-64
2022/08/02 11:51:07;;;;;;;;;;;;;;;21.65;74.59;100091.20;1669979;85;20502;-64
2022/08/02 11:53:56;;;;;;;;;;;;;;;21.68;74.50;100094.03;1670742;85;20227;-64
2022/08/02 11:56:29;;;;;;;;;;;;;;;21.73;74.58;100089.73;1671031;85;20459;-64
2022/08/02 11:59:07;;;;;;;;;;;;;;;21.78;74.45;100087.33;1673996;85;21829;-64
2022/08/02 12:01:37;;;;;;;;;;;;;;;21.83;74.37;100087.67;1673528;85;20435;-64
2022/08/02 12:04:04;;;;;;;;;;;;;;;21.84;74.01;100079.73;1672775;85;20193;-64
2022/08/02 12:06:30;;;;;;;;;;;;;;;21.86;74.12;100084.27;1673273;85;20149;-65
2022/08/02 12:09:10;;;;;;;;;;;;;;;21.92;74.16;100089.13;1673859;85;20480;-64
2022/08/02 12:11:37;;;;;;;;;;;;;;;21.96;74.16;100091.94;1673465;85;21213;-65
2022/08/02 12:14:04;;;;;;;;;;;;;;;21.95;73.82;100089.80;1673580;85;20133;-65
2022/08/02 12:19:25;;;;;;;;;;;;;;;21.88;73.48;100085.52;1673924;85;20093;-64
2022/08/02 12:22:10;;;;;;;;;;;;;;;21.88;73.79;100089.59;1673828;85;20196;-64
2022/08/02 12:24:37;;;;;;;;;;;;;;;21.94;73.89;100084.69;1673409;85;21189;-65
2022/08/02 12:27:03;;;;;;;;;;;;;;;21.99;73.92;100085.81;1673513;85;20445;-65
2022/08/02 12:29:33;;;;;;;;;;;;;;;22.04;73.81;100090.99;1673484;85;20182;-65
2022/08/02 12:32:00;;;;;;;;;;;;;;;22.07;73.92;100077.28;1673585;85;20177;-64
2022/08/02 12:34:27;;;;;;;;;;;;;;;22.11;73.89;100080.88;1673137;85;20224;-64
2022/08/02 12:36:59;;;;;;;;;;;;;;;22.17;73.79;100080.89;1673846;85;21106;-65
2022/08/02 12:39:33;;;;;;;;;;;;;;;22.21;73.54;100077.70;1673483;85;20173;-64
2022/08/02 12:42:00;;;;;;;;;;;;;;;22.24;73.51;100080.54;1670618;85;21197;-64
2022/08/02 12:44:26;;;;;;;;;;;;;;;22.29;73.28;100077.34;1671810;85;20225;-64
2022/08/02 12:47:03;;;;;;;;;;;;;;;22.32;73.14;100075.29;1671029;85;20187;-65
2022/08/02 12:49:30;;;;;;;;;;;;;;;22.34;72.98;100079.80;1670942;85;21951;-65
2022/08/02 12:51:57;;;;;;;;;;;;;;;22.32;72.47;100075.29;1672326;85;20267;-65
2022/08/02 12:54:25;;;;;;;;;;;;;;;22.33;72.31;100078.22;1672058;85;20137;-64
2022/08/02 12:56:51;;;;;;;;;;;;;;;22.30;71.84;100079.70;1673358;85;20166;-65
2022/08/02 12:59:33;;;;;;;;;;;;;;;22.29;71.72;100078.70;1672543;85;20180;-64
2022/08/02 13:02:06;;;;;;;;;;;;;;;22.27;71.37;100064.64;1669842;85;21153;-64